Aviation Digital Data Service (ADDS)

Output produced by METARs form (1024 UTC 19 February 2019)
found at http://www.aviationweather.gov/metar/data/
 
METAR text: RCTP 191000Z 05006KT 9999 FEW020 21/18 Q1018 NOSIG RMK A3007
Conditions at: RCTP (TAIPEI TAOYUAN , TW) observed 1000 UTC 19 February 2019
Temperature: 21.0°C (70°F)
Dewpoint: 18.0°C (64°F) [RH = 83%]
Pressure (altimeter): 30.06 inches Hg (1018.0 mb)
Winds: from the NE (50 degrees) at 7 MPH (6 knots; 3.1 m/s)
Visibility: 6 or more miles (10+ km)
Ceiling: at least 12,000 feet AGL
Clouds: few clouds at 2000 feet AGL
Weather: no significant weather observed at this time

METAR text: RCTP 190930Z 05008KT 9999 FEW020 21/19 Q1018 NOSIG RMK A3006
Conditions at: RCTP (TAIPEI TAOYUAN , TW) observed 0930 UTC 19 February 2019
Temperature: 21.0°C (70°F)
Dewpoint: 19.0°C (66°F) [RH = 88%]
Pressure (altimeter): 30.06 inches Hg (1018.0 mb)
Winds: from the NE (50 degrees) at 9 MPH (8 knots; 4.1 m/s)
Visibility: 6 or more miles (10+ km)
Ceiling: at least 12,000 feet AGL
Clouds: few clouds at 2000 feet AGL
Weather: no significant weather observed at this time

METAR text: RCTP 190900Z 04009KT 9999 FEW020 22/19 Q1018 NOSIG RMK A3006
Conditions at: RCTP (TAIPEI TAOYUAN , TW) observed 0900 UTC 19 February 2019
Temperature: 22.0°C (72°F)
Dewpoint: 19.0°C (66°F) [RH = 83%]
Pressure (altimeter): 30.06 inches Hg (1018.0 mb)
Winds: from the NE (40 degrees) at 10 MPH (9 knots; 4.6 m/s)
Visibility: 6 or more miles (10+ km)
Ceiling: at least 12,000 feet AGL
Clouds: few clouds at 2000 feet AGL
Weather: no significant weather observed at this time

METAR text: RCTP 190830Z 03007KT 9999 FEW020 23/20 Q1017 NOSIG RMK A3005
Conditions at: RCTP (TAIPEI TAOYUAN , TW) observed 0830 UTC 19 February 2019
Temperature: 23.0°C (73°F)
Dewpoint: 20.0°C (68°F) [RH = 83%]
Pressure (altimeter): 30.03 inches Hg (1017.0 mb)
Winds: from the NNE (30 degrees) at 8 MPH (7 knots; 3.6 m/s)
Visibility: 6 or more miles (10+ km)
Ceiling: at least 12,000 feet AGL
Clouds: few clouds at 2000 feet AGL
Weather: no significant weather observed at this time

METAR text: RCTP 190800Z 05007KT 9999 FEW020 SCT080 23/19 Q1017 NOSIG RMK A3005
Conditions at: RCTP (TAIPEI TAOYUAN , TW) observed 0800 UTC 19 February 2019
Temperature: 23.0°C (73°F)
Dewpoint: 19.0°C (66°F) [RH = 78%]
Pressure (altimeter): 30.03 inches Hg (1017.0 mb)
Winds: from the NE (50 degrees) at 8 MPH (7 knots; 3.6 m/s)
Visibility: 6 or more miles (10+ km)
Ceiling: at least 12,000 feet AGL
Clouds: few clouds at 2000 feet AGL
scattered clouds at 8000 feet AGL
Weather: no significant weather observed at this time

METAR text: RCTP 190730Z 03008KT 360V060 9999 FEW020 SCT080 24/20 Q1017 NOSIG RMK A3005
Conditions at: RCTP (TAIPEI TAOYUAN , TW) observed 0730 UTC 19 February 2019
Temperature: 24.0°C (75°F)
Dewpoint: 20.0°C (68°F) [RH = 78%]
Pressure (altimeter): 30.03 inches Hg (1017.0 mb)
Winds: from the NNE (30 degrees) at 9 MPH (8 knots; 4.1 m/s)
Visibility: 6 or more miles (10+ km)
Ceiling: at least 12,000 feet AGL
Clouds: few clouds at 2000 feet AGL
scattered clouds at 8000 feet AGL
Weather: no significant weather observed at this time

METAR text: RCTP 190700Z 03006KT 360V060 9999 FEW020 SCT080 25/20 Q1017 NOSIG RMK A3005
Conditions at: RCTP (TAIPEI TAOYUAN , TW) observed 0700 UTC 19 February 2019
Temperature: 25.0°C (77°F)
Dewpoint: 20.0°C (68°F) [RH = 74%]
Pressure (altimeter): 30.03 inches Hg (1017.0 mb)
Winds: from the NNE (30 degrees) at 7 MPH (6 knots; 3.1 m/s)
Visibility: 6 or more miles (10+ km)
Ceiling: at least 12,000 feet AGL
Clouds: few clouds at 2000 feet AGL
scattered clouds at 8000 feet AGL
Weather: no significant weather observed at this time

METAR text: RCTP 190630Z 02008KT 9999 FEW020 SCT080 24/20 Q1018 NOSIG RMK A3006
Conditions at: RCTP (TAIPEI TAOYUAN , TW) observed 0630 UTC 19 February 2019
Temperature: 24.0°C (75°F)
Dewpoint: 20.0°C (68°F) [RH = 78%]
Pressure (altimeter): 30.06 inches Hg (1018.0 mb)
Winds: from the NNE (20 degrees) at 9 MPH (8 knots; 4.1 m/s)
Visibility: 6 or more miles (10+ km)
Ceiling: at least 12,000 feet AGL
Clouds: few clouds at 2000 feet AGL
scattered clouds at 8000 feet AGL
Weather: no significant weather observed at this time

METAR text: RCTP 190600Z 02007KT 340V050 9999 FEW020 SCT080 25/20 Q1018 NOSIG RMK A3007
Conditions at: RCTP (TAIPEI TAOYUAN , TW) observed 0600 UTC 19 February 2019
Temperature: 25.0°C (77°F)
Dewpoint: 20.0°C (68°F) [RH = 74%]
Pressure (altimeter): 30.06 inches Hg (1018.0 mb)
Winds: from the NNE (20 degrees) at 8 MPH (7 knots; 3.6 m/s)
Visibility: 6 or more miles (10+ km)
Ceiling: at least 12,000 feet AGL
Clouds: few clouds at 2000 feet AGL
scattered clouds at 8000 feet AGL
Weather: no significant weather observed at this time

METAR text: RCTP 190530Z 03006KT 010V070 9999 FEW015 SCT050 BKN130 24/20 Q1018 NOSIG RMK A3007
Conditions at: RCTP (TAIPEI TAOYUAN , TW) observed 0530 UTC 19 February 2019
Temperature: 24.0°C (75°F)
Dewpoint: 20.0°C (68°F) [RH = 78%]
Pressure (altimeter): 30.06 inches Hg (1018.0 mb)
Winds: from the NNE (30 degrees) at 7 MPH (6 knots; 3.1 m/s)
Visibility: 6 or more miles (10+ km)
Ceiling: 13000 feet AGL
Clouds: few clouds at 1500 feet AGL
scattered clouds at 5000 feet AGL
broken clouds at 13000 feet AGL
Weather: no significant weather observed at this time

METAR text: RCTP 190500Z 02007KT 9999 FEW015 SCT050 BKN150 24/20 Q1019 NOSIG RMK A3009
Conditions at: RCTP (TAIPEI TAOYUAN , TW) observed 0500 UTC 19 February 2019
Temperature: 24.0°C (75°F)
Dewpoint: 20.0°C (68°F) [RH = 78%]
Pressure (altimeter): 30.09 inches Hg (1019.0 mb)
Winds: from the NNE (20 degrees) at 8 MPH (7 knots; 3.6 m/s)
Visibility: 6 or more miles (10+ km)
Ceiling: 15000 feet AGL
Clouds: few clouds at 1500 feet AGL
scattered clouds at 5000 feet AGL
broken clouds at 15000 feet AGL
Weather: no significant weather observed at this time

METAR text: RCTP 190430Z 03005KT 350V080 9999 FEW015 SCT050 BKN150 24/20 Q1019 NOSIG RMK A3009
Conditions at: RCTP (TAIPEI TAOYUAN , TW) observed 0430 UTC 19 February 2019
Temperature: 24.0°C (75°F)
Dewpoint: 20.0°C (68°F) [RH = 78%]
Pressure (altimeter): 30.09 inches Hg (1019.0 mb)
Winds: from the NNE (30 degrees) at 6 MPH (5 knots; 2.6 m/s)
Visibility: 6 or more miles (10+ km)
Ceiling: 15000 feet AGL
Clouds: few clouds at 1500 feet AGL
scattered clouds at 5000 feet AGL
broken clouds at 15000 feet AGL
Weather: no significant weather observed at this time

METAR text: RCTP 190400Z 03004KT 320V110 9999 FEW012 SCT020 BKN100 24/20 Q1019 NOSIG RMK A3010
Conditions at: RCTP (TAIPEI TAOYUAN , TW) observed 0400 UTC 19 February 2019
Temperature: 24.0°C (75°F)
Dewpoint: 20.0°C (68°F) [RH = 78%]
Pressure (altimeter): 30.09 inches Hg (1019.0 mb)
Winds: from the NNE (30 degrees) at 5 MPH (4 knots; 2.1 m/s)
Visibility: 6 or more miles (10+ km)
Ceiling: 10000 feet AGL
Clouds: few clouds at 1200 feet AGL
scattered clouds at 2000 feet AGL
broken clouds at 10000 feet AGL
Weather: no significant weather observed at this time

METAR text: RCTP 190330Z 03003KT 330V080 9999 FEW008 BKN012 BKN060 23/20 Q1019 NOSIG RMK A3011
Conditions at: RCTP (TAIPEI TAOYUAN , TW) observed 0330 UTC 19 February 2019
Temperature: 23.0°C (73°F)
Dewpoint: 20.0°C (68°F) [RH = 83%]
Pressure (altimeter): 30.09 inches Hg (1019.0 mb)
Winds: from the NNE (30 degrees) at 3 MPH (3 knots; 1.5 m/s)
Visibility: 6 or more miles (10+ km)
Ceiling: 1200 feet AGL
Clouds: few clouds at 800 feet AGL
broken clouds at 1200 feet AGL
broken clouds at 6000 feet AGL
Weather: no significant weather observed at this time

METAR text: RCTP 190300Z 01005KT 330V050 9999 FEW008 BKN012 BKN060 21/19 Q1020 NOSIG RMK A3012
Conditions at: RCTP (TAIPEI TAOYUAN , TW) observed 0300 UTC 19 February 2019
Temperature: 21.0°C (70°F)
Dewpoint: 19.0°C (66°F) [RH = 88%]
Pressure (altimeter): 30.12 inches Hg (1020.0 mb)
Winds: from the N (10 degrees) at 6 MPH (5 knots; 2.6 m/s)
Visibility: 6 or more miles (10+ km)
Ceiling: 1200 feet AGL
Clouds: few clouds at 800 feet AGL
broken clouds at 1200 feet AGL
broken clouds at 6000 feet AGL
Weather: no significant weather observed at this time

METAR text: RCTP 190230Z 01006KT 9999 FEW008 BKN012 BKN060 21/19 Q1020 NOSIG RMK A3012
Conditions at: RCTP (TAIPEI TAOYUAN , TW) observed 0230 UTC 19 February 2019
Temperature: 21.0°C (70°F)
Dewpoint: 19.0°C (66°F) [RH = 88%]
Pressure (altimeter): 30.12 inches Hg (1020.0 mb)
Winds: from the N (10 degrees) at 7 MPH (6 knots; 3.1 m/s)
Visibility: 6 or more miles (10+ km)
Ceiling: 1200 feet AGL
Clouds: few clouds at 800 feet AGL
broken clouds at 1200 feet AGL
broken clouds at 6000 feet AGL
Weather: no significant weather observed at this time

METAR text: RCTP 190200Z 36007KT 320V030 9999 SCT012 BKN020 BKN080 22/19 Q1019 NOSIG RMK A3011
Conditions at: RCTP (TAIPEI TAOYUAN , TW) observed 0200 UTC 19 February 2019
Temperature: 22.0°C (72°F)
Dewpoint: 19.0°C (66°F) [RH = 83%]
Pressure (altimeter): 30.09 inches Hg (1019.0 mb)
Winds: from the N (360 degrees) at 8 MPH (7 knots; 3.6 m/s)
Visibility: 6 or more miles (10+ km)
Ceiling: 2000 feet AGL
Clouds: scattered clouds at 1200 feet AGL
broken clouds at 2000 feet AGL
broken clouds at 8000 feet AGL
Weather: no significant weather observed at this time

METAR text: RCTP 190130Z 34005KT 300V360 9999 FEW015 SCT080 23/19 Q1019 NOSIG RMK R05 A3011
Conditions at: RCTP (TAIPEI TAOYUAN , TW) observed 0130 UTC 19 February 2019
Temperature: 23.0°C (73°F)
Dewpoint: 19.0°C (66°F) [RH = 78%]
Pressure (altimeter): 30.09 inches Hg (1019.0 mb)
Winds: from the NNW (340 degrees) at 6 MPH (5 knots; 2.6 m/s)
Visibility: 6 or more miles (10+ km)
Ceiling: at least 12,000 feet AGL
Clouds: few clouds at 1500 feet AGL
scattered clouds at 8000 feet AGL
Weather: no significant weather observed at this time

METAR text: RCTP 190100Z 27003KT 210V290 9999 FEW015 SCT060 BKN100 20/18 Q1019 NOSIG RMK A3009
Conditions at: RCTP (TAIPEI TAOYUAN , TW) observed 0100 UTC 19 February 2019
Temperature: 20.0°C (68°F)
Dewpoint: 18.0°C (64°F) [RH = 88%]
Pressure (altimeter): 30.09 inches Hg (1019.0 mb)
Winds: from the W (270 degrees) at 3 MPH (3 knots; 1.5 m/s)
Visibility: 6 or more miles (10+ km)
Ceiling: 10000 feet AGL
Clouds: few clouds at 1500 feet AGL
scattered clouds at 6000 feet AGL
broken clouds at 10000 feet AGL
Weather: no significant weather observed at this time

METAR text: RCTP 190030Z 17007KT 9999 FEW015 SCT060 BKN100 19/17 Q1018 NOSIG RMK A3007
Conditions at: RCTP (TAIPEI TAOYUAN , TW) observed 0030 UTC 19 February 2019
Temperature: 19.0°C (66°F)
Dewpoint: 17.0°C (63°F) [RH = 88%]
Pressure (altimeter): 30.06 inches Hg (1018.0 mb)
Winds: from the S (170 degrees) at 8 MPH (7 knots; 3.6 m/s)
Visibility: 6 or more miles (10+ km)
Ceiling: 10000 feet AGL
Clouds: few clouds at 1500 feet AGL
scattered clouds at 6000 feet AGL
broken clouds at 10000 feet AGL
Weather: no significant weather observed at this time

METAR text: RCTP 190000Z 17007KT 150V210 9999 FEW015 BKN180 18/17 Q1017 NOSIG RMK A3005
Conditions at: RCTP (TAIPEI TAOYUAN , TW) observed 0000 UTC 19 February 2019
Temperature: 18.0°C (64°F)
Dewpoint: 17.0°C (63°F) [RH = 94%]
Pressure (altimeter): 30.03 inches Hg (1017.0 mb)
Winds: from the S (170 degrees) at 8 MPH (7 knots; 3.6 m/s)
Visibility: 6 or more miles (10+ km)
Ceiling: 18000 feet AGL
Clouds: few clouds at 1500 feet AGL
broken clouds at 18000 feet AGL
Weather: no significant weather observed at this time

METAR text: RCTP 182330Z 19006KT 9999 FEW015 BKN150 17/16 Q1017 NOSIG RMK A3004
Conditions at: RCTP (TAIPEI TAOYUAN , TW) observed 2330 UTC 18 February 2019
Temperature: 17.0°C (63°F)
Dewpoint: 16.0°C (61°F) [RH = 94%]
Pressure (altimeter): 30.03 inches Hg (1017.0 mb)
Winds: from the S (190 degrees) at 7 MPH (6 knots; 3.1 m/s)
Visibility: 6 or more miles (10+ km)
Ceiling: 15000 feet AGL
Clouds: few clouds at 1500 feet AGL
broken clouds at 15000 feet AGL
Weather: no significant weather observed at this time

METAR text: RCTP 182300Z 17007KT 9999 FEW015 SCT025 BKN150 17/16 Q1016 NOSIG RMK A3003
Conditions at: RCTP (TAIPEI TAOYUAN , TW) observed 2300 UTC 18 February 2019
Temperature: 17.0°C (63°F)
Dewpoint: 16.0°C (61°F) [RH = 94%]
Pressure (altimeter): 30.00 inches Hg (1016.0 mb)
Winds: from the S (170 degrees) at 8 MPH (7 knots; 3.6 m/s)
Visibility: 6 or more miles (10+ km)
Ceiling: 15000 feet AGL
Clouds: few clouds at 1500 feet AGL
scattered clouds at 2500 feet AGL
broken clouds at 15000 feet AGL
Weather: no significant weather observed at this time

METAR text: RCTP 182230Z 17008KT 9999 FEW015 SCT025 BKN150 17/16 Q1016 NOSIG RMK A3002
Conditions at: RCTP (TAIPEI TAOYUAN , TW) observed 2230 UTC 18 February 2019
Temperature: 17.0°C (63°F)
Dewpoint: 16.0°C (61°F) [RH = 94%]
Pressure (altimeter): 30.00 inches Hg (1016.0 mb)
Winds: from the S (170 degrees) at 9 MPH (8 knots; 4.1 m/s)
Visibility: 6 or more miles (10+ km)
Ceiling: 15000 feet AGL
Clouds: few clouds at 1500 feet AGL
scattered clouds at 2500 feet AGL
broken clouds at 15000 feet AGL
Weather: no significant weather observed at this time

METAR text: RCTP 182200Z 16008KT 9999 FEW015 SCT025 BKN150 17/16 Q1016 NOSIG RMK A3002
Conditions at: RCTP (TAIPEI TAOYUAN , TW) observed 2200 UTC 18 February 2019
Temperature: 17.0°C (63°F)
Dewpoint: 16.0°C (61°F) [RH = 94%]
Pressure (altimeter): 30.00 inches Hg (1016.0 mb)
Winds: from the SSE (160 degrees) at 9 MPH (8 knots; 4.1 m/s)
Visibility: 6 or more miles (10+ km)
Ceiling: 15000 feet AGL
Clouds: few clouds at 1500 feet AGL
scattered clouds at 2500 feet AGL
broken clouds at 15000 feet AGL
Weather: no significant weather observed at this time

METAR text: RCTP 182130Z 16008KT 9999 -RA FEW015 SCT025 BKN150 17/16 Q1016 NOSIG RMK A3001
Conditions at: RCTP (TAIPEI TAOYUAN , TW) observed 2130 UTC 18 February 2019
Temperature: 17.0°C (63°F)
Dewpoint: 16.0°C (61°F) [RH = 94%]
Pressure (altimeter): 30.00 inches Hg (1016.0 mb)
Winds: from the SSE (160 degrees) at 9 MPH (8 knots; 4.1 m/s)
Visibility: 6 or more miles (10+ km)
Ceiling: 15000 feet AGL
Clouds: few clouds at 1500 feet AGL
scattered clouds at 2500 feet AGL
broken clouds at 15000 feet AGL
Weather: -RA  (light rain)

METAR text: RCTP 182100Z 15008KT 9999 -RA FEW015 BKN025 BKN060 16/16 Q1016 NOSIG RMK A3001 RA AMT 0.2MM
Conditions at: RCTP (TAIPEI TAOYUAN , TW) observed 2100 UTC 18 February 2019
Temperature: 16.0°C (61°F)
Dewpoint: 16.0°C (61°F) [RH = 100%]
Pressure (altimeter): 30.00 inches Hg (1016.0 mb)
Winds: from the SSE (150 degrees) at 9 MPH (8 knots; 4.1 m/s)
Visibility: 6 or more miles (10+ km)
Ceiling: 2500 feet AGL
Clouds: few clouds at 1500 feet AGL
broken clouds at 2500 feet AGL
broken clouds at 6000 feet AGL
Weather: -RA  (light rain)

METAR text: RCTP 182030Z 15007KT 9999 -RA FEW015 BKN025 BKN060 16/15 Q1016 NOSIG RMK A3003
Conditions at: RCTP (TAIPEI TAOYUAN , TW) observed 2030 UTC 18 February 2019
Temperature: 16.0°C (61°F)
Dewpoint: 15.0°C (59°F) [RH = 94%]
Pressure (altimeter): 30.00 inches Hg (1016.0 mb)
Winds: from the SSE (150 degrees) at 8 MPH (7 knots; 3.6 m/s)
Visibility: 6 or more miles (10+ km)
Ceiling: 2500 feet AGL
Clouds: few clouds at 1500 feet AGL
broken clouds at 2500 feet AGL
broken clouds at 6000 feet AGL
Weather: -RA  (light rain)

METAR text: RCTP 182000Z 15007KT 6000 -RA FEW008 BKN013 BKN025 16/15 Q1016 NOSIG RMK A3003 RA AMT 0.4MM
Conditions at: RCTP (TAIPEI TAOYUAN , TW) observed 2000 UTC 18 February 2019
Temperature: 16.0°C (61°F)
Dewpoint: 15.0°C (59°F) [RH = 94%]
Pressure (altimeter): 30.00 inches Hg (1016.0 mb)
Winds: from the SSE (150 degrees) at 8 MPH (7 knots; 3.6 m/s)
Visibility: 4 miles ( 6 km)
Ceiling: 1300 feet AGL
Clouds: few clouds at 800 feet AGL
broken clouds at 1300 feet AGL
broken clouds at 2500 feet AGL
Weather: -RA  (light rain)

METAR text: RCTP 181930Z 15007KT 6000 -RA SCT005 BKN007 BKN012 16/15 Q1018 NOSIG RMK A3006
Conditions at: RCTP (TAIPEI TAOYUAN , TW) observed 1930 UTC 18 February 2019
Temperature: 16.0°C (61°F)
Dewpoint: 15.0°C (59°F) [RH = 94%]
Pressure (altimeter): 30.06 inches Hg (1018.0 mb)
Winds: from the SSE (150 degrees) at 8 MPH (7 knots; 3.6 m/s)
Visibility: 4 miles ( 6 km)
Ceiling: 700 feet AGL
Clouds: scattered clouds at 500 feet AGL
broken clouds at 700 feet AGL
broken clouds at 1200 feet AGL
Weather: -RA  (light rain)

METAR text: RCTP 181900Z 15006KT 6000 -RA SCT005 BKN007 BKN012 16/15 Q1018 NOSIG RMK A3007
Conditions at: RCTP (TAIPEI TAOYUAN , TW) observed 1900 UTC 18 February 2019
Temperature: 16.0°C (61°F)
Dewpoint: 15.0°C (59°F) [RH = 94%]
Pressure (altimeter): 30.06 inches Hg (1018.0 mb)
Winds: from the SSE (150 degrees) at 7 MPH (6 knots; 3.1 m/s)
Visibility: 4 miles ( 6 km)
Ceiling: 700 feet AGL
Clouds: scattered clouds at 500 feet AGL
broken clouds at 700 feet AGL
broken clouds at 1200 feet AGL
Weather: -RA  (light rain)

METAR text: RCTP 181830Z VRB02KT 6000 -RA SCT005 BKN007 BKN012 16/15 Q1018 NOSIG RMK A3008
Conditions at: RCTP (TAIPEI TAOYUAN , TW) observed 1830 UTC 18 February 2019
Temperature: 16.0°C (61°F)
Dewpoint: 15.0°C (59°F) [RH = 94%]
Pressure (altimeter): 30.06 inches Hg (1018.0 mb)
Winds: variable direction winds at 2 MPH (2 knots; 1.0 m/s)
Visibility: 4 miles ( 6 km)
Ceiling: 700 feet AGL
Clouds: scattered clouds at 500 feet AGL
broken clouds at 700 feet AGL
broken clouds at 1200 feet AGL
Weather: -RA  (light rain)

METAR text: RCTP 181815Z 31004KT 280V340 5000 -RA SCT003 BKN005 BKN010 16/15 Q1019 NOSIG RMK A3009
Conditions at: RCTP (TAIPEI TAOYUAN , TW) observed 1815 UTC 18 February 2019
Temperature: 16.0°C (61°F)
Dewpoint: 15.0°C (59°F) [RH = 94%]
Pressure (altimeter): 30.09 inches Hg (1019.0 mb)
Winds: from the NW (310 degrees) at 5 MPH (4 knots; 2.1 m/s)
Visibility: 3 miles ( 5 km)
Ceiling: 500 feet AGL
Clouds: scattered clouds at 300 feet AGL
broken clouds at 500 feet AGL
broken clouds at 1000 feet AGL
Weather: -RA  (light rain)

METAR text: RCTP 181800Z 30014KT 4500 -RA BR SCT003 BKN005 BKN010 15/15 Q1019 NOSIG RMK A3009 RA AMT 0.2MM
Conditions at: RCTP (TAIPEI TAOYUAN , TW) observed 1800 UTC 18 February 2019
Temperature: 15.0°C (59°F)
Dewpoint: 15.0°C (59°F) [RH = 100%]
Pressure (altimeter): 30.09 inches Hg (1019.0 mb)
Winds: from the WNW (300 degrees) at 16 MPH (14 knots; 7.2 m/s)
Visibility: 2.80 miles (4.51 km)
Ceiling: 500 feet AGL
Clouds: scattered clouds at 300 feet AGL
broken clouds at 500 feet AGL
broken clouds at 1000 feet AGL
Weather: -RA BR  (light rain, mist)

METAR text: RCTP 181730Z 31015KT 280V340 4000 -RA BR SCT003 BKN005 BKN010 17/16 Q1018 NOSIG RMK A3008
Conditions at: RCTP (TAIPEI TAOYUAN , TW) observed 1730 UTC 18 February 2019
Temperature: 17.0°C (63°F)
Dewpoint: 16.0°C (61°F) [RH = 94%]
Pressure (altimeter): 30.06 inches Hg (1018.0 mb)
Winds: from the NW (310 degrees) at 17 MPH (15 knots; 7.7 m/s)
Visibility: 2.49 miles (4.01 km)
Ceiling: 500 feet AGL
Clouds: scattered clouds at 300 feet AGL
broken clouds at 500 feet AGL
broken clouds at 1000 feet AGL
Weather: -RA BR  (light rain, mist)

METAR text: RCTP 181718Z 32013KT 290V350 5000 -RA BR SCT003 BKN007 BKN010 18/17 Q1018 TEMPO 3000 RA BR RMK R23 A3007
Conditions at: RCTP (TAIPEI TAOYUAN , TW) observed 1718 UTC 18 February 2019
Temperature: 18.0°C (64°F)
Dewpoint: 17.0°C (63°F) [RH = 94%]
Pressure (altimeter): 30.06 inches Hg (1018.0 mb)
Winds: from the NW (320 degrees) at 15 MPH (13 knots; 6.7 m/s)
Visibility: 3 miles ( 5 km)
Ceiling: 700 feet AGL
Clouds: scattered clouds at 300 feet AGL
broken clouds at 700 feet AGL
broken clouds at 1000 feet AGL
Weather: -RA BR  (light rain, mist)

METAR text: RCTP 181707Z 31010G21KT 270V340 5000 -RA BR SCT003 BKN007 BKN010 18/18 Q1018 TEMPO 3000 RA BR RMK A3006
Conditions at: RCTP (TAIPEI TAOYUAN , TW) observed 1707 UTC 18 February 2019
Temperature: 18.0°C (64°F)
Dewpoint: 18.0°C (64°F) [RH = 100%]
Pressure (altimeter): 30.06 inches Hg (1018.0 mb)
Winds: from the NW (310 degrees) at 12 MPH (10 knots; 5.1 m/s)
gusting to 24 MPH (21 knots; 10.8 m/s)
Visibility: 3 miles ( 5 km)
Ceiling: 700 feet AGL
Clouds: scattered clouds at 300 feet AGL
broken clouds at 700 feet AGL
broken clouds at 1000 feet AGL
Weather: -RA BR  (light rain, mist)

METAR text: RCTP 181700Z 30005KT 270V330 5000 BR SCT003 BKN007 BKN010 19/18 Q1017 TEMPO 3000 BR RMK A3005
Conditions at: RCTP (TAIPEI TAOYUAN , TW) observed 1700 UTC 18 February 2019
Temperature: 19.0°C (66°F)
Dewpoint: 18.0°C (64°F) [RH = 94%]
Pressure (altimeter): 30.03 inches Hg (1017.0 mb)
Winds: from the WNW (300 degrees) at 6 MPH (5 knots; 2.6 m/s)
Visibility: 3 miles ( 5 km)
Ceiling: 700 feet AGL
Clouds: scattered clouds at 300 feet AGL
broken clouds at 700 feet AGL
broken clouds at 1000 feet AGL
Weather: BR  (mist)

METAR text: RCTP 181630Z 33003KT 5000 BR SCT003 BKN006 BKN010 19/18 Q1016 TEMPO 3000 BR RMK A3001
Conditions at: RCTP (TAIPEI TAOYUAN , TW) observed 1630 UTC 18 February 2019
Temperature: 19.0°C (66°F)
Dewpoint: 18.0°C (64°F) [RH = 94%]
Pressure (altimeter): 30.00 inches Hg (1016.0 mb)
Winds: from the NNW (330 degrees) at 3 MPH (3 knots; 1.5 m/s)
Visibility: 3 miles ( 5 km)
Ceiling: 600 feet AGL
Clouds: scattered clouds at 300 feet AGL
broken clouds at 600 feet AGL
broken clouds at 1000 feet AGL
Weather: BR  (mist)

METAR text: RCTP 181617Z 34003KT 310V010 5000 BR SCT003 BKN005 BKN010 19/18 Q1015 TEMPO 3000 BR RMK A3000
Conditions at: RCTP (TAIPEI TAOYUAN , TW) observed 1617 UTC 18 February 2019
Temperature: 19.0°C (66°F)
Dewpoint: 18.0°C (64°F) [RH = 94%]
Pressure (altimeter): 29.97 inches Hg (1015.0 mb)
Winds: from the NNW (340 degrees) at 3 MPH (3 knots; 1.5 m/s)
Visibility: 3 miles ( 5 km)
Ceiling: 500 feet AGL
Clouds: scattered clouds at 300 feet AGL
broken clouds at 500 feet AGL
broken clouds at 1000 feet AGL
Weather: BR  (mist)

METAR text: RCTP 181600Z 31003KT 6000 SCT003 BKN005 BKN010 19/18 Q1015 TEMPO 4000 BR RMK A3000
Conditions at: RCTP (TAIPEI TAOYUAN , TW) observed 1600 UTC 18 February 2019
Temperature: 19.0°C (66°F)
Dewpoint: 18.0°C (64°F) [RH = 94%]
Pressure (altimeter): 29.97 inches Hg (1015.0 mb)
Winds: from the NW (310 degrees) at 3 MPH (3 knots; 1.5 m/s)
Visibility: 4 miles ( 6 km)
Ceiling: 500 feet AGL
Clouds: scattered clouds at 300 feet AGL
broken clouds at 500 feet AGL
broken clouds at 1000 feet AGL
Weather: no significant weather observed at this time

METAR text: RCTP 181530Z 32002KT 6000 SCT003 BKN005 BKN010 19/18 Q1015 TEMPO 4000 BR RMK A3000
Conditions at: RCTP (TAIPEI TAOYUAN , TW) observed 1530 UTC 18 February 2019
Temperature: 19.0°C (66°F)
Dewpoint: 18.0°C (64°F) [RH = 94%]
Pressure (altimeter): 29.97 inches Hg (1015.0 mb)
Winds: from the NW (320 degrees) at 2 MPH (2 knots; 1.0 m/s)
Visibility: 4 miles ( 6 km)
Ceiling: 500 feet AGL
Clouds: scattered clouds at 300 feet AGL
broken clouds at 500 feet AGL
broken clouds at 1000 feet AGL
Weather: no significant weather observed at this time

METAR text: RCTP 181500Z VRB01KT 7000 SCT004 BKN005 BKN012 19/18 Q1015 TEMPO 5000 BR RMK A3000
Conditions at: RCTP (TAIPEI TAOYUAN , TW) observed 1500 UTC 18 February 2019
Temperature: 19.0°C (66°F)
Dewpoint: 18.0°C (64°F) [RH = 94%]
Pressure (altimeter): 29.97 inches Hg (1015.0 mb)
Winds: variable direction winds at 1 MPH (1 knots; 0.5 m/s)
Visibility: 4 miles ( 7 km)
Ceiling: 500 feet AGL
Clouds: scattered clouds at 400 feet AGL
broken clouds at 500 feet AGL
broken clouds at 1200 feet AGL
Weather: no significant weather observed at this time

METAR text: RCTP 181430Z 07003KT 030V100 8000 SCT004 BKN005 BKN012 19/18 Q1016 TEMPO 5000 BR RMK A3001
Conditions at: RCTP (TAIPEI TAOYUAN , TW) observed 1430 UTC 18 February 2019
Temperature: 19.0°C (66°F)
Dewpoint: 18.0°C (64°F) [RH = 94%]
Pressure (altimeter): 30.00 inches Hg (1016.0 mb)
Winds: from the ENE (70 degrees) at 3 MPH (3 knots; 1.5 m/s)
Visibility: 5 miles ( 8 km)
Ceiling: 500 feet AGL
Clouds: scattered clouds at 400 feet AGL
broken clouds at 500 feet AGL
broken clouds at 1200 feet AGL
Weather: no significant weather observed at this time

METAR text: RCTP 181400Z VRB02KT 8000 SCT005 BKN006 BKN015 19/18 Q1016 TEMPO 5000 BR RMK A3002
Conditions at: RCTP (TAIPEI TAOYUAN , TW) observed 1400 UTC 18 February 2019
Temperature: 19.0°C (66°F)
Dewpoint: 18.0°C (64°F) [RH = 94%]
Pressure (altimeter): 30.00 inches Hg (1016.0 mb)
Winds: variable direction winds at 2 MPH (2 knots; 1.0 m/s)
Visibility: 5 miles ( 8 km)
Ceiling: 600 feet AGL
Clouds: scattered clouds at 500 feet AGL
broken clouds at 600 feet AGL
broken clouds at 1500 feet AGL
Weather: no significant weather observed at this time

METAR text: RCTP 181330Z 03004KT 9999 FEW005 BKN006 BKN015 19/18 Q1016 TEMPO 5000 BR RMK A3002
Conditions at: RCTP (TAIPEI TAOYUAN , TW) observed 1330 UTC 18 February 2019
Temperature: 19.0°C (66°F)
Dewpoint: 18.0°C (64°F) [RH = 94%]
Pressure (altimeter): 30.00 inches Hg (1016.0 mb)
Winds: from the NNE (30 degrees) at 5 MPH (4 knots; 2.1 m/s)
Visibility: 6 or more miles (10+ km)
Ceiling: 600 feet AGL
Clouds: few clouds at 500 feet AGL
broken clouds at 600 feet AGL
broken clouds at 1500 feet AGL
Weather: no significant weather observed at this time

METAR text: RCTP 181300Z 02003KT 340V050 9999 FEW005 BKN007 BKN020 19/18 Q1016 NOSIG RMK A3002
Conditions at: RCTP (TAIPEI TAOYUAN , TW) observed 1300 UTC 18 February 2019
Temperature: 19.0°C (66°F)
Dewpoint: 18.0°C (64°F) [RH = 94%]
Pressure (altimeter): 30.00 inches Hg (1016.0 mb)
Winds: from the NNE (20 degrees) at 3 MPH (3 knots; 1.5 m/s)
Visibility: 6 or more miles (10+ km)
Ceiling: 700 feet AGL
Clouds: few clouds at 500 feet AGL
broken clouds at 700 feet AGL
broken clouds at 2000 feet AGL
Weather: no significant weather observed at this time

METAR text: RCTP 181230Z 01005KT 9999 FEW005 BKN007 BKN020 19/18 Q1016 NOSIG RMK A3001
Conditions at: RCTP (TAIPEI TAOYUAN , TW) observed 1230 UTC 18 February 2019
Temperature: 19.0°C (66°F)
Dewpoint: 18.0°C (64°F) [RH = 94%]
Pressure (altimeter): 30.00 inches Hg (1016.0 mb)
Winds: from the N (10 degrees) at 6 MPH (5 knots; 2.6 m/s)
Visibility: 6 or more miles (10+ km)
Ceiling: 700 feet AGL
Clouds: few clouds at 500 feet AGL
broken clouds at 700 feet AGL
broken clouds at 2000 feet AGL
Weather: no significant weather observed at this time

METAR text: RCTP 181200Z 01005KT 9999 FEW004 BKN007 BKN020 19/18 Q1015 NOSIG RMK A3000
Conditions at: RCTP (TAIPEI TAOYUAN , TW) observed 1200 UTC 18 February 2019
Temperature: 19.0°C (66°F)
Dewpoint: 18.0°C (64°F) [RH = 94%]
Pressure (altimeter): 29.97 inches Hg (1015.0 mb)
Winds: from the N (10 degrees) at 6 MPH (5 knots; 2.6 m/s)
Visibility: 6 or more miles (10+ km)
Ceiling: 700 feet AGL
Clouds: few clouds at 400 feet AGL
broken clouds at 700 feet AGL
broken clouds at 2000 feet AGL
Weather: no significant weather observed at this time

METAR text: RCTP 181130Z 04005KT 9999 FEW004 BKN006 BKN020 19/18 Q1015 NOSIG RMK A2999
Conditions at: RCTP (TAIPEI TAOYUAN , TW) observed 1130 UTC 18 February 2019
Temperature: 19.0°C (66°F)
Dewpoint: 18.0°C (64°F) [RH = 94%]
Pressure (altimeter): 29.97 inches Hg (1015.0 mb)
Winds: from the NE (40 degrees) at 6 MPH (5 knots; 2.6 m/s)
Visibility: 6 or more miles (10+ km)
Ceiling: 600 feet AGL
Clouds: few clouds at 400 feet AGL
broken clouds at 600 feet AGL
broken clouds at 2000 feet AGL
Weather: no significant weather observed at this time

METAR text: RCTP 181100Z 02006KT 9999 FEW004 BKN006 BKN020 19/18 Q1015 NOSIG RMK A2998
Conditions at: RCTP (TAIPEI TAOYUAN , TW) observed 1100 UTC 18 February 2019
Temperature: 19.0°C (66°F)
Dewpoint: 18.0°C (64°F) [RH = 94%]
Pressure (altimeter): 29.97 inches Hg (1015.0 mb)
Winds: from the NNE (20 degrees) at 7 MPH (6 knots; 3.1 m/s)
Visibility: 6 or more miles (10+ km)
Ceiling: 600 feet AGL
Clouds: few clouds at 400 feet AGL
broken clouds at 600 feet AGL
broken clouds at 2000 feet AGL
Weather: no significant weather observed at this time

METAR text: RCTP 181030Z 01006KT 9999 SCT004 BKN006 BKN015 19/18 Q1015 NOSIG RMK A2998
Conditions at: RCTP (TAIPEI TAOYUAN , TW) observed 1030 UTC 18 February 2019
Temperature: 19.0°C (66°F)
Dewpoint: 18.0°C (64°F) [RH = 94%]
Pressure (altimeter): 29.97 inches Hg (1015.0 mb)
Winds: from the N (10 degrees) at 7 MPH (6 knots; 3.1 m/s)
Visibility: 6 or more miles (10+ km)
Ceiling: 600 feet AGL
Clouds: scattered clouds at 400 feet AGL
broken clouds at 600 feet AGL
broken clouds at 1500 feet AGL
Weather: no significant weather observed at this time

METAR text: RCTP 181000Z 01008KT 8000 -RA SCT004 BKN007 BKN012 19/18 Q1014 NOSIG RMK A2997
Conditions at: RCTP (TAIPEI TAOYUAN , TW) observed 1000 UTC 18 February 2019
Temperature: 19.0°C (66°F)
Dewpoint: 18.0°C (64°F) [RH = 94%]
Pressure (altimeter): 29.94 inches Hg (1014.0 mb)
Winds: from the N (10 degrees) at 9 MPH (8 knots; 4.1 m/s)
Visibility: 5 miles ( 8 km)
Ceiling: 700 feet AGL
Clouds: scattered clouds at 400 feet AGL
broken clouds at 700 feet AGL
broken clouds at 1200 feet AGL
Weather: -RA  (light rain)

METAR text: RCTP 180930Z 35007KT 8000 -RA SCT004 BKN007 BKN012 19/18 Q1014 NOSIG RMK A2997
Conditions at: RCTP (TAIPEI TAOYUAN , TW) observed 0930 UTC 18 February 2019
Temperature: 19.0°C (66°F)
Dewpoint: 18.0°C (64°F) [RH = 94%]
Pressure (altimeter): 29.94 inches Hg (1014.0 mb)
Winds: from the N (350 degrees) at 8 MPH (7 knots; 3.6 m/s)
Visibility: 5 miles ( 8 km)
Ceiling: 700 feet AGL
Clouds: scattered clouds at 400 feet AGL
broken clouds at 700 feet AGL
broken clouds at 1200 feet AGL
Weather: -RA  (light rain)

METAR text: RCTP 180900Z 03006KT 350V050 8000 -RA SCT004 BKN007 BKN012 20/19 Q1014 NOSIG RMK A2996
Conditions at: RCTP (TAIPEI TAOYUAN , TW) observed 0900 UTC 18 February 2019
Temperature: 20.0°C (68°F)
Dewpoint: 19.0°C (66°F) [RH = 94%]
Pressure (altimeter): 29.94 inches Hg (1014.0 mb)
Winds: from the NNE (30 degrees) at 7 MPH (6 knots; 3.1 m/s)
Visibility: 5 miles ( 8 km)
Ceiling: 700 feet AGL
Clouds: scattered clouds at 400 feet AGL
broken clouds at 700 feet AGL
broken clouds at 1200 feet AGL
Weather: -RA  (light rain)

METAR text: RCTP 180830Z 03006KT 8000 -RA SCT004 BKN006 BKN012 20/19 Q1014 NOSIG RMK A2995
Conditions at: RCTP (TAIPEI TAOYUAN , TW) observed 0830 UTC 18 February 2019
Temperature: 20.0°C (68°F)
Dewpoint: 19.0°C (66°F) [RH = 94%]
Pressure (altimeter): 29.94 inches Hg (1014.0 mb)
Winds: from the NNE (30 degrees) at 7 MPH (6 knots; 3.1 m/s)
Visibility: 5 miles ( 8 km)
Ceiling: 600 feet AGL
Clouds: scattered clouds at 400 feet AGL
broken clouds at 600 feet AGL
broken clouds at 1200 feet AGL
Weather: -RA  (light rain)

METAR text: RCTP 180800Z 04006KT 8000 -RA SCT004 BKN006 BKN012 20/19 Q1014 NOSIG RMK A2996
Conditions at: RCTP (TAIPEI TAOYUAN , TW) observed 0800 UTC 18 February 2019
Temperature: 20.0°C (68°F)
Dewpoint: 19.0°C (66°F) [RH = 94%]
Pressure (altimeter): 29.94 inches Hg (1014.0 mb)
Winds: from the NE (40 degrees) at 7 MPH (6 knots; 3.1 m/s)
Visibility: 5 miles ( 8 km)
Ceiling: 600 feet AGL
Clouds: scattered clouds at 400 feet AGL
broken clouds at 600 feet AGL
broken clouds at 1200 feet AGL
Weather: -RA  (light rain)

METAR text: RCTP 180730Z 04006KT 8000 -RA SCT004 BKN006 BKN012 20/19 Q1014 NOSIG RMK A2995
Conditions at: RCTP (TAIPEI TAOYUAN , TW) observed 0730 UTC 18 February 2019
Temperature: 20.0°C (68°F)
Dewpoint: 19.0°C (66°F) [RH = 94%]
Pressure (altimeter): 29.94 inches Hg (1014.0 mb)
Winds: from the NE (40 degrees) at 7 MPH (6 knots; 3.1 m/s)
Visibility: 5 miles ( 8 km)
Ceiling: 600 feet AGL
Clouds: scattered clouds at 400 feet AGL
broken clouds at 600 feet AGL
broken clouds at 1200 feet AGL
Weather: -RA  (light rain)

METAR text: RCTP 180700Z 03006KT 8000 -RA SCT003 BKN005 BKN012 20/19 Q1014 NOSIG RMK A2995
Conditions at: RCTP (TAIPEI TAOYUAN , TW) observed 0700 UTC 18 February 2019
Temperature: 20.0°C (68°F)
Dewpoint: 19.0°C (66°F) [RH = 94%]
Pressure (altimeter): 29.94 inches Hg (1014.0 mb)
Winds: from the NNE (30 degrees) at 7 MPH (6 knots; 3.1 m/s)
Visibility: 5 miles ( 8 km)
Ceiling: 500 feet AGL
Clouds: scattered clouds at 300 feet AGL
broken clouds at 500 feet AGL
broken clouds at 1200 feet AGL
Weather: -RA  (light rain)

METAR text: RCTP 180656Z 03006KT 8000 -RA SCT003 BKN005 BKN012 20/19 Q1014 NOSIG RMK A2995
Conditions at: RCTP (TAIPEI TAOYUAN , TW) observed 0656 UTC 18 February 2019
Temperature: 20.0°C (68°F)
Dewpoint: 19.0°C (66°F) [RH = 94%]
Pressure (altimeter): 29.94 inches Hg (1014.0 mb)
Winds: from the NNE (30 degrees) at 7 MPH (6 knots; 3.1 m/s)
Visibility: 5 miles ( 8 km)
Ceiling: 500 feet AGL
Clouds: scattered clouds at 300 feet AGL
broken clouds at 500 feet AGL
broken clouds at 1200 feet AGL
Weather: -RA  (light rain)

METAR text: RCTP 180630Z 36008KT 9999 SCT003 BKN005 BKN012 20/19 Q1014 NOSIG RMK A2997
Conditions at: RCTP (TAIPEI TAOYUAN , TW) observed 0630 UTC 18 February 2019
Temperature: 20.0°C (68°F)
Dewpoint: 19.0°C (66°F) [RH = 94%]
Pressure (altimeter): 29.94 inches Hg (1014.0 mb)
Winds: from the N (360 degrees) at 9 MPH (8 knots; 4.1 m/s)
Visibility: 6 or more miles (10+ km)
Ceiling: 500 feet AGL
Clouds: scattered clouds at 300 feet AGL
broken clouds at 500 feet AGL
broken clouds at 1200 feet AGL
Weather: no significant weather observed at this time

METAR text: RCTP 180600Z 01008KT 330V040 9999 SCT003 BKN005 BKN008 20/19 Q1014 NOSIG RMK A2996
Conditions at: RCTP (TAIPEI TAOYUAN , TW) observed 0600 UTC 18 February 2019
Temperature: 20.0°C (68°F)
Dewpoint: 19.0°C (66°F) [RH = 94%]
Pressure (altimeter): 29.94 inches Hg (1014.0 mb)
Winds: from the N (10 degrees) at 9 MPH (8 knots; 4.1 m/s)
Visibility: 6 or more miles (10+ km)
Ceiling: 500 feet AGL
Clouds: scattered clouds at 300 feet AGL
broken clouds at 500 feet AGL
broken clouds at 800 feet AGL
Weather: no significant weather observed at this time

METAR text: RCTP 180530Z 35008KT 9999 SCT003 BKN004 BKN008 20/19 Q1015 NOSIG RMK A2998
Conditions at: RCTP (TAIPEI TAOYUAN , TW) observed 0530 UTC 18 February 2019
Temperature: 20.0°C (68°F)
Dewpoint: 19.0°C (66°F) [RH = 94%]
Pressure (altimeter): 29.97 inches Hg (1015.0 mb)
Winds: from the N (350 degrees) at 9 MPH (8 knots; 4.1 m/s)
Visibility: 6 or more miles (10+ km)
Ceiling: 400 feet AGL
Clouds: scattered clouds at 300 feet AGL
broken clouds at 400 feet AGL
broken clouds at 800 feet AGL
Weather: no significant weather observed at this time

METAR text: RCTP 180500Z 36008KT 9999 SCT003 BKN004 BKN008 20/19 Q1015 NOSIG RMK A2999 RA AMT 0.4MM
Conditions at: RCTP (TAIPEI TAOYUAN , TW) observed 0500 UTC 18 February 2019
Temperature: 20.0°C (68°F)
Dewpoint: 19.0°C (66°F) [RH = 94%]
Pressure (altimeter): 29.97 inches Hg (1015.0 mb)
Winds: from the N (360 degrees) at 9 MPH (8 knots; 4.1 m/s)
Visibility: 6 or more miles (10+ km)
Ceiling: 400 feet AGL
Clouds: scattered clouds at 300 feet AGL
broken clouds at 400 feet AGL
broken clouds at 800 feet AGL
Weather: no significant weather observed at this time

METAR text: RCTP 180430Z 36010KT 8000 -RA SCT003 BKN004 BKN008 20/19 Q1016 NOSIG RMK A3001
Conditions at: RCTP (TAIPEI TAOYUAN , TW) observed 0430 UTC 18 February 2019
Temperature: 20.0°C (68°F)
Dewpoint: 19.0°C (66°F) [RH = 94%]
Pressure (altimeter): 30.00 inches Hg (1016.0 mb)
Winds: from the N (360 degrees) at 12 MPH (10 knots; 5.1 m/s)
Visibility: 5 miles ( 8 km)
Ceiling: 400 feet AGL
Clouds: scattered clouds at 300 feet AGL
broken clouds at 400 feet AGL
broken clouds at 800 feet AGL
Weather: -RA  (light rain)

METAR text: RCTP 180400Z 01008KT 8000 -RA SCT003 BKN004 BKN008 20/19 Q1016 NOSIG RMK A3003 RA AMT 0.2MM
Conditions at: RCTP (TAIPEI TAOYUAN , TW) observed 0400 UTC 18 February 2019
Temperature: 20.0°C (68°F)
Dewpoint: 19.0°C (66°F) [RH = 94%]
Pressure (altimeter): 30.00 inches Hg (1016.0 mb)
Winds: from the N (10 degrees) at 9 MPH (8 knots; 4.1 m/s)
Visibility: 5 miles ( 8 km)
Ceiling: 400 feet AGL
Clouds: scattered clouds at 300 feet AGL
broken clouds at 400 feet AGL
broken clouds at 800 feet AGL
Weather: -RA  (light rain)

METAR text: RCTP 180330Z 01008KT 330V030 9999 -RA SCT003 BKN004 BKN008 20/19 Q1017 NOSIG RMK A3004
Conditions at: RCTP (TAIPEI TAOYUAN , TW) observed 0330 UTC 18 February 2019
Temperature: 20.0°C (68°F)
Dewpoint: 19.0°C (66°F) [RH = 94%]
Pressure (altimeter): 30.03 inches Hg (1017.0 mb)
Winds: from the N (10 degrees) at 9 MPH (8 knots; 4.1 m/s)
Visibility: 6 or more miles (10+ km)
Ceiling: 400 feet AGL
Clouds: scattered clouds at 300 feet AGL
broken clouds at 400 feet AGL
broken clouds at 800 feet AGL
Weather: -RA  (light rain)

METAR text: RCTP 180315Z 01011KT 9999 -RA BKN004 BKN008 BKN012 20/19 Q1016 NOSIG RMK A3003
Conditions at: RCTP (TAIPEI TAOYUAN , TW) observed 0315 UTC 18 February 2019
Temperature: 20.0°C (68°F)
Dewpoint: 19.0°C (66°F) [RH = 94%]
Pressure (altimeter): 30.00 inches Hg (1016.0 mb)
Winds: from the N (10 degrees) at 13 MPH (11 knots; 5.7 m/s)
Visibility: 6 or more miles (10+ km)
Ceiling: 400 feet AGL
Clouds: broken clouds at 400 feet AGL
broken clouds at 800 feet AGL
broken clouds at 1200 feet AGL
Weather: -RA  (light rain)

METAR text: RCTP 180300Z 01011KT 9999 BKN004 BKN008 BKN013 20/19 Q1017 NOSIG RMK A3004
Conditions at: RCTP (TAIPEI TAOYUAN , TW) observed 0300 UTC 18 February 2019
Temperature: 20.0°C (68°F)
Dewpoint: 19.0°C (66°F) [RH = 94%]
Pressure (altimeter): 30.03 inches Hg (1017.0 mb)
Winds: from the N (10 degrees) at 13 MPH (11 knots; 5.7 m/s)
Visibility: 6 or more miles (10+ km)
Ceiling: 400 feet AGL
Clouds: broken clouds at 400 feet AGL
broken clouds at 800 feet AGL
broken clouds at 1300 feet AGL
Weather: no significant weather observed at this time

METAR text: RCTP 180254Z 02011KT 350V050 9999 BKN004 BKN008 BKN013 20/19 Q1017 NOSIG RMK A3004
Conditions at: RCTP (TAIPEI TAOYUAN , TW) observed 0254 UTC 18 February 2019
Temperature: 20.0°C (68°F)
Dewpoint: 19.0°C (66°F) [RH = 94%]
Pressure (altimeter): 30.03 inches Hg (1017.0 mb)
Winds: from the NNE (20 degrees) at 13 MPH (11 knots; 5.7 m/s)
Visibility: 6 or more miles (10+ km)
Ceiling: 400 feet AGL
Clouds: broken clouds at 400 feet AGL
broken clouds at 800 feet AGL
broken clouds at 1300 feet AGL
Weather: no significant weather observed at this time

METAR text: RCTP 180230Z 03010KT 9999 BKN005 BKN008 BKN013 20/19 Q1017 NOSIG RMK A3005
Conditions at: RCTP (TAIPEI TAOYUAN , TW) observed 0230 UTC 18 February 2019
Temperature: 20.0°C (68°F)
Dewpoint: 19.0°C (66°F) [RH = 94%]
Pressure (altimeter): 30.03 inches Hg (1017.0 mb)
Winds: from the NNE (30 degrees) at 12 MPH (10 knots; 5.1 m/s)
Visibility: 6 or more miles (10+ km)
Ceiling: 500 feet AGL
Clouds: broken clouds at 500 feet AGL
broken clouds at 800 feet AGL
broken clouds at 1300 feet AGL
Weather: no significant weather observed at this time

METAR text: RCTP 180200Z 04009KT 9999 BKN005 BKN008 BKN013 20/19 Q1018 NOSIG RMK A3006
Conditions at: RCTP (TAIPEI TAOYUAN , TW) observed 0200 UTC 18 February 2019
Temperature: 20.0°C (68°F)
Dewpoint: 19.0°C (66°F) [RH = 94%]
Pressure (altimeter): 30.06 inches Hg (1018.0 mb)
Winds: from the NE (40 degrees) at 10 MPH (9 knots; 4.6 m/s)
Visibility: 6 or more miles (10+ km)
Ceiling: 500 feet AGL
Clouds: broken clouds at 500 feet AGL
broken clouds at 800 feet AGL
broken clouds at 1300 feet AGL
Weather: no significant weather observed at this time

METAR text: RCTP 180150Z 04012KT 9999 BKN005 BKN008 BKN013 20/19 Q1018 NOSIG RMK A3006
Conditions at: RCTP (TAIPEI TAOYUAN , TW) observed 0150 UTC 18 February 2019
Temperature: 20.0°C (68°F)
Dewpoint: 19.0°C (66°F) [RH = 94%]
Pressure (altimeter): 30.06 inches Hg (1018.0 mb)
Winds: from the NE (40 degrees) at 14 MPH (12 knots; 6.2 m/s)
Visibility: 6 or more miles (10+ km)
Ceiling: 500 feet AGL
Clouds: broken clouds at 500 feet AGL
broken clouds at 800 feet AGL
broken clouds at 1300 feet AGL
Weather: no significant weather observed at this time

METAR text: RCTP 180130Z 05011KT 9999 SCT005 BKN006 BKN013 20/19 Q1018 NOSIG RMK A3006
Conditions at: RCTP (TAIPEI TAOYUAN , TW) observed 0130 UTC 18 February 2019
Temperature: 20.0°C (68°F)
Dewpoint: 19.0°C (66°F) [RH = 94%]
Pressure (altimeter): 30.06 inches Hg (1018.0 mb)
Winds: from the NE (50 degrees) at 13 MPH (11 knots; 5.7 m/s)
Visibility: 6 or more miles (10+ km)
Ceiling: 600 feet AGL
Clouds: scattered clouds at 500 feet AGL
broken clouds at 600 feet AGL
broken clouds at 1300 feet AGL
Weather: no significant weather observed at this time

METAR text: RCTP 180100Z 05013KT 9999 SCT005 BKN006 BKN100 20/19 Q1018 NOSIG RMK A3006
Conditions at: RCTP (TAIPEI TAOYUAN , TW) observed 0100 UTC 18 February 2019
Temperature: 20.0°C (68°F)
Dewpoint: 19.0°C (66°F) [RH = 94%]
Pressure (altimeter): 30.06 inches Hg (1018.0 mb)
Winds: from the NE (50 degrees) at 15 MPH (13 knots; 6.7 m/s)
Visibility: 6 or more miles (10+ km)
Ceiling: 600 feet AGL
Clouds: scattered clouds at 500 feet AGL
broken clouds at 600 feet AGL
broken clouds at 10000 feet AGL
Weather: no significant weather observed at this time

METAR text: RCTP 180030Z 05014KT 9999 SCT005 BKN007 BKN100 20/19 Q1017 NOSIG RMK A3005
Conditions at: RCTP (TAIPEI TAOYUAN , TW) observed 0030 UTC 18 February 2019
Temperature: 20.0°C (68°F)
Dewpoint: 19.0°C (66°F) [RH = 94%]
Pressure (altimeter): 30.03 inches Hg (1017.0 mb)
Winds: from the NE (50 degrees) at 16 MPH (14 knots; 7.2 m/s)
Visibility: 6 or more miles (10+ km)
Ceiling: 700 feet AGL
Clouds: scattered clouds at 500 feet AGL
broken clouds at 700 feet AGL
broken clouds at 10000 feet AGL
Weather: no significant weather observed at this time

METAR text: RCTP 180016Z 05013KT 9999 SCT005 BKN007 BKN100 20/19 Q1017 WS ALL RWY NOSIG RMK A3005
Conditions at: RCTP (TAIPEI TAOYUAN , TW) observed 0016 UTC 18 February 2019
Temperature: 20.0°C (68°F)
Dewpoint: 19.0°C (66°F) [RH = 94%]
Pressure (altimeter): 30.03 inches Hg (1017.0 mb)
Winds: from the NE (50 degrees) at 15 MPH (13 knots; 6.7 m/s)
Visibility: 6 or more miles (10+ km)
Ceiling: 700 feet AGL
Clouds: scattered clouds at 500 feet AGL
broken clouds at 700 feet AGL
broken clouds at 10000 feet AGL
Weather: no significant weather observed at this time

METAR text: RCTP 180000Z 06010KT 030V090 9999 FEW006 BKN009 BKN100 20/19 Q1018 WS ALL RWY NOSIG RMK A3006
Conditions at: RCTP (TAIPEI TAOYUAN , TW) observed 0000 UTC 18 February 2019
Temperature: 20.0°C (68°F)
Dewpoint: 19.0°C (66°F) [RH = 94%]
Pressure (altimeter): 30.06 inches Hg (1018.0 mb)
Winds: from the ENE (60 degrees) at 12 MPH (10 knots; 5.1 m/s)
Visibility: 6 or more miles (10+ km)
Ceiling: 900 feet AGL
Clouds: few clouds at 600 feet AGL
broken clouds at 900 feet AGL
broken clouds at 10000 feet AGL
Weather: no significant weather observed at this time

METAR text: RCTP 172357Z 06010KT 030V090 9999 FEW006 BKN009 BKN100 20/19 Q1018 WS ALL RWY NOSIG RMK A3006
Conditions at: RCTP (TAIPEI TAOYUAN , TW) observed 2357 UTC 17 February 2019
Temperature: 20.0°C (68°F)
Dewpoint: 19.0°C (66°F) [RH = 94%]
Pressure (altimeter): 30.06 inches Hg (1018.0 mb)
Winds: from the ENE (60 degrees) at 12 MPH (10 knots; 5.1 m/s)
Visibility: 6 or more miles (10+ km)
Ceiling: 900 feet AGL
Clouds: few clouds at 600 feet AGL
broken clouds at 900 feet AGL
broken clouds at 10000 feet AGL
Weather: no significant weather observed at this time

METAR text: RCTP 172330Z 06010KT 9999 FEW009 SCT015 BKN100 19/18 Q1017 NOSIG RMK A3004
Conditions at: RCTP (TAIPEI TAOYUAN , TW) observed 2330 UTC 17 February 2019
Temperature: 19.0°C (66°F)
Dewpoint: 18.0°C (64°F) [RH = 94%]
Pressure (altimeter): 30.03 inches Hg (1017.0 mb)
Winds: from the ENE (60 degrees) at 12 MPH (10 knots; 5.1 m/s)
Visibility: 6 or more miles (10+ km)
Ceiling: 10000 feet AGL
Clouds: few clouds at 900 feet AGL
scattered clouds at 1500 feet AGL
broken clouds at 10000 feet AGL
Weather: no significant weather observed at this time

METAR text: RCTP 172300Z 05007KT 9999 FEW009 SCT015 BKN100 18/17 Q1016 NOSIG RMK A3003
Conditions at: RCTP (TAIPEI TAOYUAN , TW) observed 2300 UTC 17 February 2019
Temperature: 18.0°C (64°F)
Dewpoint: 17.0°C (63°F) [RH = 94%]
Pressure (altimeter): 30.00 inches Hg (1016.0 mb)
Winds: from the NE (50 degrees) at 8 MPH (7 knots; 3.6 m/s)
Visibility: 6 or more miles (10+ km)
Ceiling: 10000 feet AGL
Clouds: few clouds at 900 feet AGL
scattered clouds at 1500 feet AGL
broken clouds at 10000 feet AGL
Weather: no significant weather observed at this time

METAR text: RCTP 172230Z 04006KT 9999 FEW009 SCT015 BKN100 17/16 Q1016 NOSIG RMK A3003
Conditions at: RCTP (TAIPEI TAOYUAN , TW) observed 2230 UTC 17 February 2019
Temperature: 17.0°C (63°F)
Dewpoint: 16.0°C (61°F) [RH = 94%]
Pressure (altimeter): 30.00 inches Hg (1016.0 mb)
Winds: from the NE (40 degrees) at 7 MPH (6 knots; 3.1 m/s)
Visibility: 6 or more miles (10+ km)
Ceiling: 10000 feet AGL
Clouds: few clouds at 900 feet AGL
scattered clouds at 1500 feet AGL
broken clouds at 10000 feet AGL
Weather: no significant weather observed at this time

Forecast for: RCTP (TAIPEI TAOYUAN , TW)
Text: TAF RCTP 190500Z 1906/2012 02005KT 9999 FEW012 SCT020 BKN032
Forecast period: 0600 to 1000 UTC 19 February 2019
Forecast type: FROM: standard forecast or significant change
Winds: from the NNE (20 degrees) at 6 MPH (5 knots; 2.6 m/s)
Visibility: 6 or more miles 10+ km)
Ceiling: 3200 feet AGL
Clouds: few clouds at 1200 feet AGL
scattered clouds at 2000 feet AGL
broken clouds at 3200 feet AGL
Weather: no significant weather forecast for this period
Text: TEMPO 1906/1910 34010KT FEW008 BKN012 BKN040
Forecast period: 0600 to 1000 UTC 19 February 2019
Forecast type: TEMPORARY: The following changes expected for less than half the time period
Winds: from the NNW (340 degrees) at 12 MPH (10 knots; 5.1 m/s)
Visibility: missing
Ceiling: 1200 feet AGL
Clouds: few clouds at 800 feet AGL
broken clouds at 1200 feet AGL
broken clouds at 4000 feet AGL
Weather: no significant weather forecast for this period
Text: BECMG 1910/1912 06012KT
Forecast period: 1000 UTC 19 February 2019 to 1200 UTC 20 February 2019
Forecast type: BECOMING: Conditions expected to become as follows by 1200 UTC 19 February 2019
Winds: from the ENE (60 degrees) at 14 MPH (12 knots; 6.2 m/s)
Visibility: 6 or more miles 10+ km)
Ceiling: 3200 feet AGL
Clouds: few clouds at 1200 feet AGL
scattered clouds at 2000 feet AGL
broken clouds at 3200 feet AGL
Weather: no significant weather forecast for this period
Text: TEMPO 1918/1924 4000 BR FEW008 BKN016 BKN040
Forecast period: 1800 UTC 19 February 2019 to 0000 UTC 20 February 2019
Forecast type: TEMPORARY: The following changes expected for less than half the time period
Visibility: 2.49 miles (4.01 km)
Ceiling: 1600 feet AGL
Clouds: few clouds at 800 feet AGL
broken clouds at 1600 feet AGL
broken clouds at 4000 feet AGL
Weather: BR  (mist)